createdAt,value
2023-03-05T00:02:40.287Z,14.40
2023-03-05T00:06:52.652Z,15.57
2023-03-05T00:11:08.315Z,11.38
2023-03-05T00:15:20.848Z,12.77
2023-03-05T00:19:33.208Z,10.30
2023-03-05T00:23:45.733Z,10.23
2023-03-05T00:27:58.164Z,8.40
2023-03-05T00:32:10.621Z,12.13
2023-03-05T00:36:23.440Z,10.73
2023-03-05T00:40:40.654Z,10.15
2023-03-05T00:44:53.124Z,10.57
2023-03-05T00:49:05.604Z,12.38
2023-03-05T00:53:18.118Z,12.63
2023-03-05T00:57:30.445Z,11.98
2023-03-05T01:01:42.893Z,13.25
2023-03-05T01:05:55.291Z,14.52
2023-03-05T01:10:08.402Z,16.13
2023-03-05T01:14:22.273Z,17.98
2023-03-05T01:18:36.782Z,20.08
2023-03-05T01:22:49.900Z,21.95
2023-03-05T01:27:02.296Z,25.10
2023-03-05T01:31:14.830Z,28.70
2023-03-05T01:35:27.429Z,33.42
2023-03-05T01:39:39.901Z,38.15
2023-03-05T01:43:53.265Z,38.28
2023-03-05T01:48:05.761Z,35.50
2023-03-05T01:52:22.242Z,33.22
2023-03-05T01:56:35.435Z,27.70
2023-03-05T02:00:50.733Z,21.35
2023-03-05T02:05:07.946Z,20.67
2023-03-05T02:09:24.160Z,19.73
2023-03-05T02:13:40.890Z,24.17
2023-03-05T02:17:53.233Z,23.70
2023-03-05T02:22:06.534Z,25.67
2023-03-05T02:26:18.947Z,22.75
2023-03-05T02:30:31.766Z,19.70
2023-03-05T02:34:44.732Z,21.65
2023-03-05T02:38:59.387Z,25.90
2023-03-05T02:43:12.854Z,26.00
2023-03-05T02:47:25.620Z,28.00
2023-03-05T02:51:38.045Z,28.42
2023-03-05T02:55:51.356Z,28.88
2023-03-05T03:00:05.780Z,29.35
2023-03-05T03:04:18.274Z,31.25
2023-03-05T03:08:31.045Z,25.95
2023-03-05T03:12:45.408Z,25.23
2023-03-05T03:16:59.165Z,21.27
2023-03-05T03:21:18.601Z,19.58
2023-03-05T03:25:30.933Z,12.95
2023-03-05T03:29:43.310Z,11.27
2023-03-05T03:33:55.773Z,10.13
2023-03-05T03:38:08.126Z,10.90
2023-03-05T03:42:21.955Z,11.40
2023-03-05T03:46:34.439Z,11.13
2023-03-05T03:50:46.752Z,12.50
2023-03-05T03:55:01.863Z,12.32
2023-03-05T03:59:14.588Z,11.95
2023-03-05T04:03:26.869Z,12.10
2023-03-05T04:07:39.277Z,11.75
2023-03-05T04:11:51.711Z,11.18
2023-03-05T04:16:04.728Z,13.52
2023-03-05T04:20:17.529Z,10.63
2023-03-05T04:24:29.874Z,10.32
2023-03-05T04:28:43.253Z,10.75
2023-03-05T04:32:55.895Z,11.23
2023-03-05T04:37:08.302Z,11.40
2023-03-05T04:41:20.666Z,10.65
2023-03-05T04:45:33.407Z,10.07
2023-03-05T04:49:46.687Z,10.32
2023-03-05T04:53:59.029Z,9.82
2023-03-05T04:58:11.367Z,9.68
2023-03-05T05:02:23.661Z,10.38
2023-03-05T05:06:36.167Z,10.77
2023-03-05T05:11:03.658Z,8.75
2023-03-05T05:15:17.150Z,8.88
2023-03-05T05:19:29.556Z,9.23
2023-03-05T05:23:42.062Z,8.95
2023-03-05T05:27:55.892Z,7.30
2023-03-05T05:32:08.261Z,7.47
2023-03-05T05:36:22.661Z,7.68
2023-03-05T05:40:35.272Z,7.65
2023-03-05T05:44:48.287Z,7.35
2023-03-05T05:49:00.739Z,8.27
2023-03-05T05:53:13.015Z,7.43
2023-03-05T05:57:25.443Z,8.48
2023-03-05T06:01:40.005Z,12.68
2023-03-05T06:05:52.427Z,7.32
2023-03-05T06:10:05.618Z,8.05
2023-03-05T06:14:18.175Z,8.20
2023-03-05T06:18:30.696Z,6.78
2023-03-05T06:22:43.079Z,6.82
2023-03-05T06:26:56.118Z,5.32
2023-03-05T06:31:19.155Z,5.38
2023-03-05T06:35:31.591Z,7.55
2023-03-05T06:39:44.117Z,6.15
2023-03-05T06:43:57.339Z,5.25
2023-03-05T06:48:09.745Z,5.82
2023-03-05T06:52:21.945Z,6.40
2023-03-05T06:56:37.294Z,5.22
2023-03-05T07:00:49.722Z,5.00
2023-03-05T07:05:04.391Z,5.85
2023-03-05T07:09:17.295Z,9.52
2023-03-05T07:13:30.656Z,8.55
2023-03-05T07:17:49.369Z,8.75
2023-03-05T07:22:01.837Z,11.43
2023-03-05T07:26:16.546Z,10.43
2023-03-05T07:30:29.052Z,9.63
2023-03-05T07:34:41.476Z,10.55
2023-03-05T07:38:54.268Z,10.30
2023-03-05T07:43:06.733Z,8.75
2023-03-05T07:47:20.152Z,6.93
2023-03-05T07:51:34.404Z,8.30
2023-03-05T07:55:47.953Z,12.52
2023-03-05T08:00:00.306Z,12.82
2023-03-05T08:04:12.968Z,9.88
2023-03-05T08:08:25.428Z,10.07
2023-03-05T08:12:37.854Z,9.60
2023-03-05T08:16:53.113Z,11.10
2023-03-05T08:21:06.062Z,12.07
2023-03-05T08:25:21.455Z,12.00
2023-03-05T08:29:34.141Z,15.98
2023-03-05T08:33:46.556Z,13.07
2023-03-05T08:38:02.013Z,13.27
2023-03-05T08:42:14.337Z,13.85
2023-03-05T08:46:26.834Z,16.05
2023-03-05T08:50:39.618Z,13.50
2023-03-05T08:54:52.220Z,13.07
2023-03-05T08:59:05.244Z,15.75
2023-03-05T09:03:18.225Z,15.25
2023-03-05T09:07:30.739Z,18.92
2023-03-05T09:11:43.119Z,16.70
2023-03-05T09:16:03.682Z,12.02
2023-03-05T09:20:16.495Z,13.90
2023-03-05T09:24:29.119Z,15.43
2023-03-05T09:28:42.186Z,14.93
2023-03-05T09:32:55.238Z,10.85
2023-03-05T09:37:09.529Z,13.23
2023-03-05T09:41:59.232Z,9.80
2023-03-05T09:46:18.364Z,12.63
2023-03-05T09:50:48.519Z,8.30
2023-03-05T09:55:03.076Z,15.15
2023-03-05T09:59:52.447Z,8.07
2023-03-05T10:04:13.671Z,4.35
2023-03-05T10:08:45.854Z,6.50
2023-03-05T10:13:01.728Z,7.38
2023-03-05T10:17:26.317Z,6.45
2023-03-05T10:21:52.362Z,12.25
2023-03-05T10:26:08.047Z,9.13
2023-03-05T10:30:27.070Z,8.05
2023-03-05T10:34:58.411Z,6.17
2023-03-05T10:39:34.141Z,9.10
2023-03-05T10:43:59.699Z,8.68
2023-03-05T10:48:12.096Z,6.43
2023-03-05T10:52:37.116Z,6.68
2023-03-05T10:56:49.464Z,6.13
2023-03-05T11:01:22.396Z,4.55
2023-03-05T11:05:44.957Z,5.53
2023-03-05T11:10:21.760Z,7.60
2023-03-05T11:14:36.440Z,10.95
2023-03-05T11:18:49.439Z,15.00
2023-03-05T11:23:05.166Z,9.85
2023-03-05T11:27:32.816Z,10.00
2023-03-05T11:31:45.312Z,8.02
2023-03-05T11:36:25.361Z,6.57
2023-03-05T11:40:37.893Z,6.78
2023-03-05T11:44:58.700Z,7.68
2023-03-05T11:49:16.757Z,5.45
2023-03-05T11:53:35.687Z,9.15
2023-03-05T11:58:06.496Z,6.07
2023-03-05T12:02:23.193Z,9.75
2023-03-05T12:06:50.154Z,5.60
2023-03-05T12:11:15.922Z,8.98
2023-03-05T12:15:43.951Z,5.55
2023-03-05T12:20:14.755Z,4.97
2023-03-05T12:24:28.491Z,8.80
2023-03-05T12:28:59.255Z,9.25
2023-03-05T12:33:31.306Z,5.75
2023-03-05T12:37:52.732Z,8.15
2023-03-05T12:42:31.705Z,7.97
2023-03-05T12:46:46.063Z,9.82
2023-03-05T12:51:13.029Z,6.60
2023-03-05T12:55:36.721Z,8.00
2023-03-05T12:59:55.226Z,5.30
2023-03-05T13:04:22.957Z,8.77
2023-03-05T13:08:37.617Z,7.90
2023-03-05T13:12:55.688Z,6.85
2023-03-05T13:17:33.127Z,7.60
2023-03-05T13:21:45.619Z,7.50
2023-03-05T13:25:59.404Z,8.80
2023-03-05T13:30:29.005Z,9.15
2023-03-05T13:34:48.229Z,8.95
2023-03-05T13:39:00.961Z,7.33
2023-03-05T13:43:20.987Z,7.13
2023-03-05T13:47:40.441Z,7.40
2023-03-05T13:51:56.973Z,5.68
2023-03-05T13:56:16.429Z,7.28
2023-03-05T14:00:42.436Z,9.02
2023-03-05T14:04:55.555Z,9.82
2023-03-05T14:09:19.026Z,10.55
2023-03-05T14:13:32.385Z,10.93
2023-03-05T14:17:44.889Z,10.02
2023-03-05T14:21:57.206Z,10.15
2023-03-05T14:26:32.377Z,8.02
2023-03-05T14:30:49.674Z,8.40
2023-03-05T14:35:05.265Z,10.60
2023-03-05T14:39:27.903Z,9.02
2023-03-05T14:43:40.263Z,15.25
2023-03-05T14:47:54.895Z,10.82
2023-03-05T14:52:07.494Z,10.98
2023-03-05T14:56:26.382Z,12.48
2023-03-05T15:00:38.736Z,14.17
2023-03-05T15:04:57.161Z,12.75
2023-03-05T15:09:11.872Z,12.80
2023-03-05T15:13:24.564Z,13.90
2023-03-05T15:17:39.599Z,15.07
2023-03-05T15:21:52.135Z,15.32
2023-03-05T15:26:09.832Z,14.77
2023-03-05T15:30:29.828Z,13.57
2023-03-05T15:34:42.265Z,16.15
2023-03-05T15:38:54.679Z,15.98
2023-03-05T15:43:07.876Z,15.88
2023-03-05T15:47:20.206Z,14.63
2023-03-05T15:51:32.626Z,17.10
2023-03-05T15:55:46.310Z,15.35
2023-03-05T15:59:58.649Z,13.65
2023-03-05T16:04:12.049Z,16.17
2023-03-05T16:08:24.499Z,15.02
2023-03-05T16:12:41.327Z,15.70
2023-03-05T16:16:55.947Z,12.38
2023-03-05T16:21:08.557Z,13.65
2023-03-05T16:25:22.274Z,15.52
2023-03-05T16:29:34.774Z,13.52
2023-03-05T16:33:47.096Z,14.63
2023-03-05T16:37:59.508Z,18.35
2023-03-05T16:42:13.938Z,13.48
2023-03-05T16:46:29.249Z,16.95
2023-03-05T16:50:41.765Z,18.85
2023-03-05T16:54:54.436Z,22.77
2023-03-05T16:59:07.012Z,18.40
2023-03-05T17:03:23.058Z,18.83
2023-03-05T17:07:35.509Z,21.45
2023-03-05T17:11:47.878Z,23.33
2023-03-05T17:16:00.348Z,19.60
2023-03-05T17:20:16.551Z,20.05
2023-03-05T17:24:29.095Z,24.60
2023-03-05T17:28:42.443Z,21.65
2023-03-05T17:32:55.038Z,29.23
2023-03-05T17:37:07.625Z,29.13
2023-03-05T17:41:21.373Z,30.52
2023-03-05T17:45:35.658Z,29.05
2023-03-05T17:49:48.129Z,30.08
2023-03-05T17:54:00.812Z,32.58
2023-03-05T17:58:13.146Z,40.97
2023-03-05T18:02:25.642Z,36.83
2023-03-05T18:06:38.189Z,33.72
2023-03-05T18:10:50.603Z,32.88
2023-03-05T18:15:05.220Z,40.63
2023-03-05T18:19:18.914Z,32.92
2023-03-05T18:23:31.362Z,35.67
2023-03-05T18:27:43.722Z,33.00
2023-03-05T18:31:56.589Z,28.77
2023-03-05T18:36:11.033Z,30.08
2023-03-05T18:40:25.474Z,27.13
2023-03-05T18:44:37.948Z,29.25
2023-03-05T18:48:50.601Z,32.08
2023-03-05T18:53:03.427Z,39.85
2023-03-05T18:57:15.882Z,44.53
2023-03-05T19:01:28.367Z,44.70
2023-03-05T19:05:41.936Z,40.03
2023-03-05T19:09:59.883Z,37.90
2023-03-05T19:14:12.272Z,45.33
2023-03-05T19:19:24.690Z,35.45
2023-03-05T19:23:38.382Z,42.35
2023-03-05T19:27:52.349Z,39.05
2023-03-05T19:32:05.897Z,42.80
2023-03-05T19:36:18.262Z,45.85
2023-03-05T19:40:30.898Z,43.85
2023-03-05T19:44:43.289Z,43.55
2023-03-05T19:48:56.068Z,44.15
2023-03-05T19:53:08.393Z,41.88
2023-03-05T19:57:20.754Z,43.75
2023-03-05T20:01:33.723Z,47.75
2023-03-05T20:05:46.069Z,47.92
2023-03-05T20:09:58.500Z,51.40
2023-03-05T20:14:13.450Z,49.38
2023-03-05T20:18:26.135Z,41.15
2023-03-05T20:22:41.157Z,47.22
2023-03-05T20:26:54.741Z,66.10
2023-03-05T20:31:07.163Z,51.13
2023-03-05T20:35:19.535Z,45.90
2023-03-05T20:39:32.151Z,35.85
2023-03-05T20:43:47.896Z,33.40
2023-03-05T20:48:00.206Z,34.38
2023-03-05T20:52:12.530Z,30.10
2023-03-05T20:56:28.239Z,33.65
2023-03-05T21:00:41.748Z,33.15
2023-03-05T21:04:54.184Z,30.33
2023-03-05T21:09:06.601Z,31.05
2023-03-05T21:13:19.419Z,29.55
2023-03-05T21:17:31.858Z,35.28
2023-03-05T21:21:45.976Z,31.35
2023-03-05T21:26:01.969Z,31.15
2023-03-05T21:30:14.501Z,33.80
2023-03-05T21:34:27.003Z,27.05
2023-03-05T21:38:39.879Z,34.45
2023-03-05T21:42:54.108Z,31.25
2023-03-05T21:47:06.450Z,33.65
2023-03-05T21:52:11.853Z,31.05
2023-03-05T21:56:26.255Z,26.80
2023-03-05T22:00:38.753Z,28.83
2023-03-05T22:04:51.561Z,28.65
2023-03-05T22:09:04.144Z,24.05
2023-03-05T22:13:18.079Z,22.42
2023-03-05T22:17:30.434Z,22.38
2023-03-05T22:21:42.717Z,23.48
2023-03-05T22:26:04.671Z,20.35
2023-03-05T22:30:17.252Z,20.83
2023-03-05T22:34:29.564Z,20.80
2023-03-05T22:38:43.068Z,19.25
2023-03-05T22:42:56.011Z,19.33
2023-03-05T22:47:08.257Z,19.00
2023-03-05T22:51:20.937Z,22.48
2023-03-05T22:55:34.914Z,21.95
2023-03-05T22:59:50.004Z,22.55
2023-03-05T23:05:00.236Z,22.15
2023-03-05T23:09:12.639Z,21.00
2023-03-05T23:13:25.031Z,17.85
2023-03-05T23:17:37.370Z,20.27
2023-03-05T23:21:49.602Z,23.23
2023-03-05T23:26:02.125Z,21.25
2023-03-05T23:30:22.961Z,23.48
2023-03-05T23:34:35.339Z,19.33
2023-03-05T23:38:48.445Z,20.88
2023-03-05T23:43:00.874Z,24.13
2023-03-05T23:47:13.245Z,19.98
2023-03-05T23:51:25.534Z,20.88
2023-03-05T23:55:43.317Z,21.83
2023-03-05T23:59:55.648Z,17.83
